createdAt,value
2023-01-13T00:03:37.273Z,11.40
2023-01-13T00:08:38.901Z,11.40
2023-01-13T00:13:40.556Z,11.40
2023-01-13T00:18:42.621Z,11.40
2023-01-13T00:23:45.009Z,11.40
2023-01-13T00:28:46.796Z,11.30
2023-01-13T00:33:51.727Z,11.30
2023-01-13T00:38:53.829Z,11.30
2023-01-13T00:43:55.476Z,11.30
2023-01-13T00:48:57.100Z,11.30
2023-01-13T00:53:58.704Z,11.30
2023-01-13T00:59:02.034Z,11.20
2023-01-13T01:04:03.686Z,11.30
2023-01-13T01:09:06.087Z,11.20
2023-01-13T01:14:10.360Z,11.30
2023-01-13T01:19:11.904Z,11.40
2023-01-13T01:24:13.628Z,11.30
2023-01-13T01:29:15.543Z,11.20
2023-01-13T01:34:17.195Z,11.20
2023-01-13T01:39:18.851Z,11.20
2023-01-13T01:44:42.016Z,11.20
2023-01-13T01:49:45.895Z,11.10
2023-01-13T01:55:00.250Z,10.90
2023-01-13T02:00:03.112Z,10.70
2023-01-13T02:05:05.214Z,10.60
2023-01-13T02:10:10.395Z,10.40
2023-01-13T02:15:17.472Z,10.20
2023-01-13T02:20:28.872Z,10.00
2023-01-13T02:25:59.957Z,9.80
2023-01-13T02:31:32.055Z,9.70
2023-01-13T02:36:45.875Z,9.70
2023-01-13T02:42:27.452Z,9.60
2023-01-13T02:47:32.479Z,9.50
2023-01-13T02:52:49.461Z,9.40
2023-01-13T02:57:53.079Z,9.30
2023-01-13T03:02:54.868Z,9.20
2023-01-13T03:08:11.392Z,9.20
2023-01-13T03:13:16.051Z,9.10
2023-01-13T03:18:23.900Z,9.00
2023-01-13T03:23:34.492Z,8.90
2023-01-13T03:28:44.073Z,8.90
2023-01-13T03:33:51.581Z,8.90
2023-01-13T03:38:58.452Z,8.80
2023-01-13T03:44:23.368Z,8.80
2023-01-13T03:49:31.260Z,8.80
2023-01-13T03:54:39.275Z,8.70
2023-01-13T03:59:45.316Z,8.80
2023-01-13T04:04:58.320Z,8.80
2023-01-13T04:10:02.817Z,8.70
2023-01-13T04:15:05.978Z,8.70
2023-01-13T04:20:08.200Z,8.70
2023-01-13T04:25:10.328Z,8.70
2023-01-13T04:30:12.420Z,8.70
2023-01-13T04:35:14.247Z,8.60
2023-01-13T04:40:16.275Z,8.60
2023-01-13T04:45:24.014Z,8.50
2023-01-13T04:50:26.167Z,8.40
2023-01-13T04:55:28.449Z,8.40
2023-01-13T05:00:30.244Z,8.40
2023-01-13T05:05:32.307Z,8.50
2023-01-13T05:10:34.076Z,8.40
2023-01-13T05:15:54.547Z,8.40
2023-01-13T05:20:56.360Z,8.30
2023-01-13T05:25:58.112Z,8.20
2023-01-13T05:31:00.272Z,8.20
2023-01-13T05:36:03.114Z,8.00
2023-01-13T05:41:23.571Z,8.00
2023-01-13T05:46:25.371Z,7.90
2023-01-13T05:51:28.219Z,7.80
2023-01-13T05:56:29.904Z,7.70
2023-01-13T06:01:31.613Z,7.70
2023-01-13T06:06:33.354Z,7.60
2023-01-13T06:11:35.052Z,7.60
2023-01-13T06:16:36.749Z,7.60
2023-01-13T06:21:38.871Z,7.60
2023-01-13T06:26:41.455Z,7.60
2023-01-13T06:31:43.431Z,7.60
2023-01-13T06:36:50.029Z,7.70
2023-01-13T06:42:12.360Z,7.70
2023-01-13T06:47:14.486Z,7.80
2023-01-13T06:52:16.328Z,7.70
2023-01-13T06:57:18.063Z,7.70
2023-01-13T07:02:19.834Z,7.80
2023-01-13T07:07:21.603Z,7.80
2023-01-13T07:12:23.284Z,7.90
2023-01-13T07:17:27.654Z,7.80
2023-01-13T07:22:29.379Z,7.90
2023-01-13T07:27:31.074Z,8.00
2023-01-13T07:32:33.800Z,8.10
2023-01-13T07:37:39.998Z,8.10
2023-01-13T07:43:00.119Z,8.20
2023-01-13T07:48:03.067Z,8.30
2023-01-13T07:53:04.993Z,8.40
2023-01-13T07:58:06.709Z,8.50
2023-01-13T08:03:08.604Z,8.60
2023-01-13T08:08:10.441Z,8.50
2023-01-13T08:13:17.868Z,8.40
2023-01-13T08:18:22.286Z,8.30
2023-01-13T08:23:24.057Z,8.20
2023-01-13T08:28:25.767Z,8.00
2023-01-13T08:33:28.796Z,7.90
2023-01-13T08:38:30.580Z,7.80
2023-01-13T08:43:32.330Z,7.70
2023-01-13T08:48:34.366Z,7.70
2023-01-13T08:53:36.401Z,7.60
2023-01-13T08:58:38.512Z,7.60
2023-01-13T09:03:41.749Z,7.60
2023-01-13T09:08:44.468Z,7.50
2023-01-13T09:13:46.274Z,7.50
2023-01-13T09:18:47.980Z,7.60
2023-01-13T09:23:49.851Z,7.80
2023-01-13T09:28:51.549Z,8.00
2023-01-13T09:34:11.764Z,8.20
2023-01-13T09:39:14.222Z,8.40
2023-01-13T09:44:33.787Z,8.60
2023-01-13T09:49:39.461Z,8.80
2023-01-13T09:54:44.199Z,8.90
2023-01-13T09:59:46.359Z,9.10
2023-01-13T10:05:17.464Z,9.20
2023-01-13T10:10:33.579Z,9.40
2023-01-13T10:15:35.944Z,9.50
2023-01-13T10:20:59.248Z,9.50
2023-01-13T10:26:34.363Z,9.60
2023-01-13T10:31:36.158Z,9.60
2023-01-13T10:36:37.868Z,9.70
2023-01-13T10:41:39.583Z,9.90
2023-01-13T10:46:55.970Z,10.00
2023-01-13T10:51:57.959Z,10.20
2023-01-13T10:57:15.855Z,10.30
2023-01-13T11:02:26.668Z,10.30
2023-01-13T11:07:46.549Z,10.30
2023-01-13T11:12:54.661Z,10.30
2023-01-13T11:18:00.743Z,10.30
2023-01-13T11:23:12.552Z,10.20
2023-01-13T11:28:55.145Z,10.20
2023-01-13T11:34:11.687Z,10.30
2023-01-13T11:39:13.295Z,10.30
2023-01-13T11:44:35.560Z,10.30
2023-01-13T11:49:38.649Z,10.20
2023-01-13T11:54:47.586Z,10.40
2023-01-13T12:00:01.304Z,10.50
2023-01-13T12:05:14.734Z,10.50
2023-01-13T12:10:38.757Z,10.50
2023-01-13T12:16:15.519Z,10.40
2023-01-13T12:21:24.269Z,10.20
2023-01-13T12:26:28.818Z,9.80
2023-01-13T12:31:34.544Z,9.70
2023-01-13T12:36:42.397Z,9.70
2023-01-13T12:42:12.251Z,9.80
2023-01-13T12:47:35.097Z,9.80
2023-01-13T12:52:45.872Z,9.70
2023-01-13T12:58:05.898Z,9.70
2023-01-13T13:03:19.286Z,9.70
2023-01-13T13:08:44.660Z,9.80
2023-01-13T13:13:48.693Z,9.70
2023-01-13T13:18:50.473Z,9.70
2023-01-13T13:23:55.348Z,9.70
2023-01-13T13:29:00.058Z,9.70
2023-01-13T13:34:23.632Z,9.70
2023-01-13T13:39:48.404Z,9.70
2023-01-13T13:45:09.416Z,9.70
2023-01-13T13:50:21.075Z,9.60
2023-01-13T13:55:25.916Z,9.60
2023-01-13T14:00:36.893Z,9.60
2023-01-13T14:05:38.714Z,9.70
2023-01-13T14:10:43.142Z,9.70
2023-01-13T14:15:45.904Z,9.70
2023-01-13T14:21:04.564Z,9.70
2023-01-13T14:26:15.005Z,9.80
2023-01-13T14:31:17.080Z,9.80
2023-01-13T14:36:23.089Z,9.80
2023-01-13T14:41:27.815Z,9.80
2023-01-13T14:46:44.581Z,9.80
2023-01-13T14:51:46.433Z,9.70
2023-01-13T14:56:55.083Z,9.60
2023-01-13T15:01:56.784Z,9.50
2023-01-13T15:07:00.049Z,9.50
2023-01-13T15:12:16.971Z,9.40
2023-01-13T15:17:18.782Z,9.30
2023-01-13T15:22:20.412Z,9.30
2023-01-13T15:27:25.707Z,9.20
2023-01-13T15:32:27.427Z,9.20
2023-01-13T15:37:29.180Z,9.10
2023-01-13T15:42:49.925Z,9.10
2023-01-13T15:47:51.865Z,9.10
2023-01-13T15:52:53.466Z,9.00
2023-01-13T15:57:55.379Z,9.00
2023-01-13T16:02:57.159Z,9.00
2023-01-13T16:07:58.864Z,9.00
2023-01-13T16:13:01.677Z,9.00
2023-01-13T16:18:04.999Z,9.00
2023-01-13T16:23:06.712Z,9.00
2023-01-13T16:28:24.963Z,9.00
2023-01-13T16:33:26.609Z,9.00
2023-01-13T16:38:29.294Z,9.00
2023-01-13T16:43:31.492Z,9.00
2023-01-13T16:48:33.890Z,9.10
2023-01-13T16:53:35.577Z,9.00
2023-01-13T16:58:37.243Z,8.90
2023-01-13T17:03:38.864Z,8.90
2023-01-13T17:08:40.574Z,8.90
2023-01-13T17:13:42.260Z,8.80
2023-01-13T17:18:43.927Z,8.80
2023-01-13T17:23:45.787Z,8.80
2023-01-13T17:28:47.425Z,8.80
2023-01-13T17:33:49.074Z,8.70
2023-01-13T17:38:50.671Z,8.70
2023-01-13T17:43:53.271Z,8.70
2023-01-13T17:48:54.947Z,8.70
2023-01-13T17:53:56.823Z,8.70
2023-01-13T17:58:58.569Z,8.70
2023-01-13T18:04:00.704Z,8.70
2023-01-13T18:09:02.501Z,8.60
2023-01-13T18:14:05.532Z,8.70
2023-01-13T18:19:25.658Z,8.60
2023-01-13T18:24:46.073Z,8.60
2023-01-13T18:29:49.701Z,8.60
2023-01-13T18:35:01.654Z,8.60
2023-01-13T18:40:10.060Z,8.60
2023-01-13T18:45:11.682Z,8.60
2023-01-13T18:50:13.898Z,8.60
2023-01-13T18:55:19.155Z,8.60
2023-01-13T19:00:22.435Z,8.60
2023-01-13T19:05:24.117Z,8.50
2023-01-13T19:10:27.966Z,8.50
2023-01-13T19:15:29.973Z,8.40
2023-01-13T19:20:31.670Z,8.40
2023-01-13T19:25:33.331Z,8.30
2023-01-13T19:30:35.011Z,8.30
2023-01-13T19:35:39.751Z,8.30
2023-01-13T19:40:41.420Z,8.20
2023-01-13T19:45:44.494Z,8.30
2023-01-13T19:50:46.237Z,8.20
2023-01-13T19:55:49.188Z,8.20
2023-01-13T20:00:52.415Z,8.20
2023-01-13T20:05:55.214Z,8.20
2023-01-13T20:11:16.831Z,8.30
2023-01-13T20:16:18.558Z,8.30
2023-01-13T20:21:21.354Z,8.30
2023-01-13T20:26:23.168Z,8.40
2023-01-13T20:31:24.836Z,8.40
2023-01-13T20:36:31.343Z,8.40
2023-01-13T20:41:52.756Z,8.40
2023-01-13T20:46:57.452Z,8.50
2023-01-13T20:52:00.105Z,8.40
2023-01-13T20:57:04.295Z,8.40
2023-01-13T21:02:10.505Z,8.50
2023-01-13T21:07:12.361Z,8.40
2023-01-13T21:12:35.069Z,8.40
2023-01-13T21:17:55.628Z,8.40
2023-01-13T21:22:57.617Z,8.40
2023-01-13T21:28:05.380Z,8.40
2023-01-13T21:33:07.324Z,8.40
2023-01-13T21:38:12.172Z,8.40
2023-01-13T21:43:32.598Z,8.50
2023-01-13T21:48:34.238Z,8.50
2023-01-13T21:53:35.914Z,8.60
2023-01-13T21:58:38.756Z,8.60
2023-01-13T22:03:59.573Z,8.60
2023-01-13T22:09:01.321Z,8.60
2023-01-13T22:14:06.819Z,8.60
2023-01-13T22:19:09.711Z,8.60
2023-01-13T22:24:11.920Z,8.60
2023-01-13T22:29:13.666Z,8.70
2023-01-13T22:34:15.448Z,8.70
2023-01-13T22:39:18.151Z,8.70
2023-01-13T22:44:20.572Z,8.70
2023-01-13T22:49:22.947Z,8.70
2023-01-13T22:54:24.691Z,8.60
2023-01-13T22:59:26.541Z,8.60
2023-01-13T23:04:28.504Z,8.50
2023-01-13T23:09:30.333Z,8.50
2023-01-13T23:14:32.157Z,8.40
2023-01-13T23:19:34.030Z,8.40
2023-01-13T23:24:35.797Z,8.20
2023-01-13T23:29:37.876Z,8.10
2023-01-13T23:34:39.625Z,8.00
2023-01-13T23:39:41.367Z,7.80
2023-01-13T23:44:43.252Z,7.70
2023-01-13T23:49:45.066Z,7.60
2023-01-13T23:54:46.896Z,7.50
2023-01-13T23:59:48.614Z,7.40
